»·PEaware :: N383AL KSLC-KBZN

N383AL :: KSLC-KBZN

FLIGHT INFORMATION

Flight Status: Arrived
Operator: Privately registered:
United States
More flights under this callsign
Pilot: Anonymous 10623 (10623)
Aircraft: GATES LEARJET LEARJET 35/36
(LJ35)
More flights by this aircraft type
Origin: KSLC Salt Lake City Intl
United States
Destination: KBZN Gallatin
United States
More flights between these airports :: More routes between these airports
Route: RUGGD1 HOLTR BRIGR BZN
File this flight plan on PilotEdge
Remarks: RMK / SIMBRIEF
Altitude:
(Current/Filed)
38,000ft
Speed:
(Current/Filed)
448kts
Departed: 06-Jul-21 12:40 PM
Arrived: 06-Jul-21 01:38 PM
Distance/Time
Traveled:
301nm/0:57
Distance/Time
To Go:
Arrived

Flight Plot

Page will automatically refresh every two minutes.

Flight plan parsing failed; only flown route is shown


Map Options




Map Legend


Flown Route
Filed Route
Departure Airport
Arrival Airport
Navaid (VOR, NDB)
Fix

Horizontal Profiles

Position Reports

Time Latitude Longitude Heading Altitude Ground
Speed
06-Jul-21 12:13 40.784119 -111.958716 183 4229ft 0kts
06-Jul-21 12:14 40.784119 -111.958716 183 4229ft 0kts
06-Jul-21 12:15 40.784119 -111.958716 183 4229ft 0kts
06-Jul-21 12:16 40.784119 -111.958716 183 4229ft 0kts
06-Jul-21 12:17 40.784119 -111.958716 183 4229ft 0kts
06-Jul-21 12:18 40.784119 -111.958716 183 4229ft 0kts
06-Jul-21 12:19 40.784119 -111.958716 183 4229ft 0kts
06-Jul-21 12:20 40.784119 -111.958716 183 4229ft 0kts
06-Jul-21 12:21 40.784119 -111.958716 183 4229ft 0kts
06-Jul-21 12:22 40.784119 -111.958716 183 4229ft 0kts
06-Jul-21 12:23 40.784119 -111.958716 183 4229ft 0kts
06-Jul-21 12:24 40.784119 -111.958716 183 4229ft 0kts
06-Jul-21 12:25 40.784119 -111.958716 183 4229ft 0kts
06-Jul-21 12:26 40.784119 -111.958716 183 4229ft 0kts
06-Jul-21 12:27 40.784119 -111.958716 183 4229ft 0kts
06-Jul-21 12:28 40.784119 -111.958716 183 4229ft 0kts
06-Jul-21 12:29 40.784119 -111.958716 183 4229ft 0kts
06-Jul-21 12:30 40.783952 -111.958851 253 4230ft 4kts
06-Jul-21 12:31 40.784727 -111.959146 358 4230ft 5kts
06-Jul-21 12:32 40.785512 -111.959592 313 4230ft 7kts
06-Jul-21 12:33 40.788332 -111.959992 359 4230ft 16kts
06-Jul-21 12:34 40.794373 -111.960020 2 4230ft 24kts
06-Jul-21 12:35 40.798803 -111.960109 328 4230ft 6kts
06-Jul-21 12:36 40.798964 -111.960533 270 4230ft 0kts
06-Jul-21 12:37 40.798964 -111.960536 270 4230ft 0kts
06-Jul-21 12:38 40.797994 -111.962121 179 4230ft 10kts
06-Jul-21 12:39 40.764585 -111.962306 193 4861ft 184kts
06-Jul-21 12:41 40.742883 -112.023571 291 7269ft 236kts
06-Jul-21 12:42 40.778086 -112.094802 308 9865ft 229kts
06-Jul-21 12:43 40.817381 -112.168402 317 11127ft 261kts
06-Jul-21 12:44 40.893964 -112.182307 9 12078ft 318kts
06-Jul-21 12:45 40.973821 -112.118666 43 13447ft 350kts
06-Jul-21 12:46 41.041533 -112.022749 48 15812ft 367kts
06-Jul-21 12:47 41.091025 -111.900867 66 18863ft 385kts
06-Jul-21 12:48 41.145676 -111.777937 31 21377ft 397kts
06-Jul-21 12:49 41.252736 -111.770336 350 23473ft 401kts
06-Jul-21 12:50 41.365323 -111.754276 13 25218ft 418kts
06-Jul-21 12:51 41.479567 -111.708337 11 27280ft 436kts
06-Jul-21 12:52 41.598988 -111.667531 9 29221ft 450kts
06-Jul-21 12:53 41.720214 -111.625853 8 31362ft 449kts
06-Jul-21 12:54 41.841089 -111.583308 7 33220ft 448kts
06-Jul-21 12:55 41.961619 -111.541596 7 34929ft 445kts
06-Jul-21 12:56 42.080758 -111.500625 7 36543ft 440kts
06-Jul-21 12:57 42.198689 -111.459831 7 37977ft 435kts
06-Jul-21 12:58 42.317716 -111.423394 358 38311ft 437kts
06-Jul-21 12:59 42.437989 -111.424909 349 38317ft 434kts
06-Jul-21 13:00 42.560043 -111.428810 352 38327ft 440kts
06-Jul-21 13:00 42.662166 -111.428955 352 38342ft 442kts
06-Jul-21 13:01 42.785596 -111.430478 352 38343ft 444kts
06-Jul-21 13:03 42.930311 -111.431740 352 38343ft 445kts
06-Jul-21 13:04 43.053735 -111.432739 352 38321ft 444kts
06-Jul-21 13:04 43.156868 -111.433415 352 38321ft 443kts
06-Jul-21 13:06 43.300082 -111.434408 351 38321ft 441kts
06-Jul-21 13:06 43.402689 -111.435402 351 38320ft 441kts
06-Jul-21 13:07 43.525317 -111.436541 351 38323ft 440kts
06-Jul-21 13:08 43.646969 -111.437690 351 38069ft 437kts
06-Jul-21 13:09 43.769704 -111.439000 351 35959ft 434kts
06-Jul-21 13:10 43.889973 -111.440426 352 33859ft 436kts
06-Jul-21 13:11 44.012524 -111.443320 353 31768ft 445kts
06-Jul-21 13:12 44.137562 -111.446744 354 29667ft 450kts
06-Jul-21 13:13 44.261664 -111.448678 355 27569ft 430kts
06-Jul-21 13:14 44.377255 -111.452053 355 25319ft 399kts
06-Jul-21 13:15 44.485184 -111.450251 355 23219ft 390kts
06-Jul-21 13:16 44.596216 -111.451877 355 21128ft 405kts
06-Jul-21 13:17 44.709812 -111.454043 355 19030ft 399kts
06-Jul-21 13:18 44.807285 -111.454197 355 17732ft 312kts
06-Jul-21 13:19 44.897676 -111.455627 355 16643ft 354kts
06-Jul-21 13:20 45.001214 -111.457389 356 15543ft 382kts
06-Jul-21 13:21 45.108486 -111.459125 356 14492ft 387kts
06-Jul-21 13:22 45.216245 -111.460180 356 14155ft 390kts
06-Jul-21 13:23 45.319855 -111.457994 0 13753ft 357kts
06-Jul-21 13:24 45.416607 -111.446023 1 13098ft 353kts
06-Jul-21 13:25 45.514114 -111.433294 2 13063ft 333kts
06-Jul-21 13:26 45.593728 -111.421575 2 13055ft 284kts
06-Jul-21 13:27 45.672832 -111.409438 2 13026ft 295kts
06-Jul-21 13:28 45.753588 -111.402425 353 11938ft 274kts
06-Jul-21 13:29 45.826482 -111.419459 346 9351ft 259kts
06-Jul-21 13:30 45.890080 -111.453601 336 7552ft 237kts
06-Jul-21 13:31 45.942510 -111.424074 62 7163ft 193kts
06-Jul-21 13:32 45.934757 -111.358892 143 7235ft 180kts
06-Jul-21 13:33 45.895779 -111.312753 140 7218ft 182kts
06-Jul-21 13:34 45.861275 -111.266797 136 6553ft 173kts
06-Jul-21 13:35 45.828151 -111.221235 137 5630ft 157kts
06-Jul-21 13:36 45.797945 -111.180544 132 4768ft 142kts
06-Jul-21 13:37 45.777556 -111.150578 38 4474ft 20kts
06-Jul-21 13:38 45.776161 -111.149864 137 4474ft 5kts
06-Jul-21 13:39 45.774233 -111.150652 224 4474ft 9kts
06-Jul-21 13:40 45.773580 -111.152270 314 4474ft 0kts
06-Jul-21 13:41 45.773580 -111.152270 314 4474ft 0kts
06-Jul-21 13:42 45.773580 -111.152270 314 4474ft 0kts

Navigation Log

Ident Type
Flight plan parsing failed, navigation log unavailable